Montrose Regional Airport
KMTJ : now visible

Airfield :











YOU CAN JOIN US ON...

 
LOGIN :

Register | Disclaimer

   EN    FR    IT 

 









Legend :    VFR   Marginal VFR   IFR   Intensive IFR   Very Intensive IFR
Visi :
Ceiling :
>= 8 km
>= 3000ft
5 to 8 km
1000 to 3000 ft
1500m to 5 km
500 to 1000 ft
800 to 1500m
200 to 500 ft
< 800m
< 200 ft
Symbols :   Thunderstorms  Fog  Heavy snow  Heavy precipitations  Wind > 20 kt






- Airport Elevation : 5759 ft


KMTJ - Montrose Regional

CURRENT METAR :
  • 261353Z AUTO 14003KT 10SM CLR 07/03 A3014 RMK AO2 SLP168 T00670028

EXPIRED METARs :
  • 261253Z AUTO 16003KT 10SM CLR 05/02 A3013 RMK AO2 SLP164 T00500017
  • 261153Z AUTO 17003KT 10SM CLR 03/01 A3010 RMK AO2 SLP146 70001 T00330006 10072 20033 53006
  • 261053Z AUTO 13007KT 10SM CLR 05/02 A3009 RMK AO2 SLP136 T00500022
  • 260953Z AUTO 12007KT 10SM CLR 06/03 A3008 RMK AO2 SLP133 T00560028

TAF KMTJ
Valid from the 26 at 12:00 until the 27 at 12:00 UTC


261120Z 2612/2712 13007KT P6SM SKC
FM261800 33008KT P6SM FEW070
FM270300 14005KT P6SM SKC
KZDV FIR / North America



MET'MAP, your aeronautical weather chart ! - Copyright ORBIFLY December 2007 - Disclaimer

ORBIFLY MET'MAP TEAM :

Programming & Development : Alexandra Zaïnal
Original concept : Baudouin d'Aumeries
Technical & hardware support : Manuel Goepfert
Assistance : Marc-Olivier Méhu




SOURCES & CREDITS :

   NOAA       Earth
Advisory